createdAt,value
2018-12-15T00:01:38.284Z,100709.77
2018-12-15T00:04:09.917Z,100709.84
2018-12-15T00:06:57.276Z,100714.84
2018-12-15T00:09:27.042Z,100712.41
2018-12-15T00:11:56.761Z,100718.81
2018-12-15T00:14:26.541Z,100714.87
2018-12-15T00:16:56.349Z,100718.64
2018-12-15T00:19:26.037Z,100718.72
2018-12-15T00:21:55.772Z,100723.70
2018-12-15T00:24:25.447Z,100719.09
2018-12-15T00:26:55.137Z,100720.38
2018-12-15T00:29:24.945Z,100721.14
2018-12-15T00:31:54.704Z,100722.80
2018-12-15T00:34:24.379Z,100724.02
2018-12-15T00:36:54.069Z,100733.90
2018-12-15T00:39:23.813Z,100731.34
2018-12-15T00:41:53.526Z,100730.64
2018-12-15T00:44:23.443Z,100733.03
2018-12-15T00:46:53.182Z,100741.64
2018-12-15T00:49:22.917Z,100749.34
2018-12-15T00:51:52.670Z,100744.31
2018-12-15T00:54:22.430Z,100750.64
2018-12-15T00:56:52.273Z,100747.19
2018-12-15T00:59:21.941Z,100746.69
2018-12-15T01:01:52.222Z,100749.32
2018-12-15T01:04:21.890Z,100744.22
2018-12-15T01:06:51.629Z,100746.27
2018-12-15T01:09:21.457Z,100744.66
2018-12-15T01:11:51.285Z,100751.18
2018-12-15T01:14:21.881Z,100751.18
2018-12-15T01:16:51.597Z,100753.64
2018-12-15T01:19:21.378Z,100753.40
2018-12-15T01:21:51.108Z,100748.83
2018-12-15T01:24:21.024Z,100755.66
2018-12-15T01:26:50.700Z,100759.95
2018-12-15T01:29:20.649Z,100761.30
2018-12-15T01:31:50.432Z,100765.48
2018-12-15T01:34:20.193Z,100768.46
2018-12-15T01:36:49.869Z,100771.75
2018-12-15T01:39:20.597Z,100774.65
2018-12-15T01:41:50.382Z,100778.63
2018-12-15T01:44:20.199Z,100781.72
2018-12-15T01:46:49.929Z,100779.02
2018-12-15T01:49:19.836Z,100775.95
2018-12-15T01:51:49.508Z,100781.65
2018-12-15T01:54:19.211Z,100781.65
2018-12-15T01:56:48.929Z,100785.34
2018-12-15T01:59:18.613Z,100786.77
2018-12-15T02:01:48.277Z,100785.92
2018-12-15T02:04:17.988Z,100785.91
2018-12-15T02:06:47.745Z,100780.34
2018-12-15T02:09:17.440Z,100781.34
2018-12-15T02:11:47.114Z,100782.48
2018-12-15T02:14:16.780Z,100779.48
2018-12-15T02:16:46.660Z,100779.16
2018-12-15T02:19:16.323Z,100778.63
2018-12-15T02:21:46.009Z,100779.02
2018-12-15T02:24:15.667Z,100776.92
2018-12-15T02:26:45.469Z,100778.70
2018-12-15T02:29:16.273Z,100783.20
2018-12-15T02:31:45.944Z,100782.06
2018-12-15T02:34:15.637Z,100780.44
2018-12-15T02:36:45.315Z,100785.22
2018-12-15T02:39:15.095Z,100789.60
2018-12-15T02:41:47.366Z,100790.34
2018-12-15T02:44:16.702Z,100792.52
2018-12-15T02:46:46.460Z,100784.70
2018-12-15T02:49:16.214Z,100791.12
2018-12-15T02:51:45.945Z,100789.06
2018-12-15T02:54:16.557Z,100793.37
2018-12-15T02:56:46.406Z,100797.58
2018-12-15T02:59:16.193Z,100793.88
2018-12-15T03:01:45.880Z,100795.47
2018-12-15T03:04:15.617Z,100803.30
2018-12-15T03:06:45.446Z,100801.23
2018-12-15T03:09:15.272Z,100794.05
2018-12-15T03:11:44.951Z,100797.32
2018-12-15T03:14:14.690Z,100799.59
2018-12-15T03:16:55.684Z,100796.18
2018-12-15T03:19:25.353Z,100798.95
2018-12-15T03:21:55.189Z,100798.31
2018-12-15T03:24:24.856Z,100807.19
2018-12-15T03:26:54.628Z,100802.13
2018-12-15T03:29:24.304Z,100799.23
2018-12-15T03:31:54.053Z,100815.11
2018-12-15T03:34:23.859Z,100803.52
2018-12-15T03:36:53.528Z,100805.98
2018-12-15T03:39:23.400Z,100808.55
2018-12-15T03:41:53.184Z,100809.10
2018-12-15T03:44:22.962Z,100815.09
2018-12-15T03:46:52.642Z,100811.25
2018-12-15T03:49:22.492Z,100810.03
2018-12-15T03:51:52.422Z,100811.31
2018-12-15T03:54:22.432Z,100812.03
2018-12-15T03:56:52.247Z,100803.93
2018-12-15T03:59:22.156Z,100810.17
2018-12-15T04:01:51.999Z,100805.14
2018-12-15T04:04:21.824Z,100808.60
2018-12-15T04:06:51.534Z,100812.73
2018-12-15T04:09:21.386Z,100811.48
2018-12-15T04:11:51.065Z,100811.05
2018-12-15T04:14:20.797Z,100810.91
2018-12-15T04:16:50.528Z,100808.76
2018-12-15T04:19:20.295Z,100812.47
2018-12-15T04:21:50.114Z,100809.17
2018-12-15T04:24:19.885Z,100802.28
2018-12-15T04:26:49.565Z,100801.42
2018-12-15T04:29:21.283Z,100798.38
2018-12-15T04:31:51.078Z,100799.66
2018-12-15T04:34:20.778Z,100802.28
2018-12-15T04:36:50.629Z,100794.19
2018-12-15T04:39:20.306Z,100791.47
2018-12-15T04:41:50.226Z,100785.89
2018-12-15T04:44:20.330Z,100787.45
2018-12-15T04:46:50.689Z,100787.80
2018-12-15T04:49:20.476Z,100781.97
2018-12-15T04:51:51.256Z,100783.95
2018-12-15T04:54:20.917Z,100785.95
2018-12-15T04:56:50.734Z,100784.05
2018-12-15T04:59:20.380Z,100777.73
2018-12-15T05:01:50.225Z,100779.41
2018-12-15T05:04:19.989Z,100781.58
2018-12-15T05:06:49.781Z,100770.44
2018-12-15T05:09:19.498Z,100782.77
2018-12-15T05:11:49.217Z,100775.08
2018-12-15T05:14:19.056Z,100773.44
2018-12-15T05:16:48.813Z,100776.45
2018-12-15T05:19:18.531Z,100772.80
2018-12-15T05:21:48.509Z,100775.06
2018-12-15T05:24:18.371Z,100775.08
2018-12-15T05:26:48.388Z,100774.23
2018-12-15T05:29:18.150Z,100773.00
2018-12-15T05:31:47.825Z,100774.72
2018-12-15T05:34:17.540Z,100780.30
2018-12-15T05:36:47.237Z,100775.50
2018-12-15T05:39:17.028Z,100778.12
2018-12-15T05:41:46.800Z,100782.94
2018-12-15T05:44:16.465Z,100780.78
2018-12-15T05:46:46.215Z,100784.28
2018-12-15T05:49:15.926Z,100780.06
2018-12-15T05:51:45.674Z,100773.89
2018-12-15T05:54:15.348Z,100779.92
2018-12-15T05:56:45.054Z,100783.34
2018-12-15T05:59:14.820Z,100785.34
2018-12-15T06:01:44.491Z,100782.75
2018-12-15T06:04:14.212Z,100792.51
2018-12-15T06:06:43.973Z,100795.43
2018-12-15T06:09:13.665Z,100792.80
2018-12-15T06:11:43.353Z,100801.28
2018-12-15T06:14:13.258Z,100799.66
2018-12-15T06:16:42.931Z,100801.37
2018-12-15T06:19:12.616Z,100802.77
2018-12-15T06:21:42.289Z,100800.20
2018-12-15T06:24:12.068Z,100799.52
2018-12-15T06:26:41.958Z,100802.14
2018-12-15T06:29:11.645Z,100798.63
2018-12-15T06:31:41.377Z,100807.20
2018-12-15T06:34:11.131Z,100803.75
2018-12-15T06:36:41.105Z,100808.05
2018-12-15T06:39:10.785Z,100813.67
2018-12-15T06:41:40.452Z,100811.45
2018-12-15T06:44:10.167Z,100810.80
2018-12-15T06:46:39.838Z,100807.39
2018-12-15T06:49:09.573Z,100811.18
2018-12-15T06:51:39.293Z,100810.45
2018-12-15T06:54:09.006Z,100808.39
2018-12-15T06:56:38.730Z,100815.23
2018-12-15T06:59:08.815Z,100812.60
2018-12-15T07:01:38.489Z,100818.07
2018-12-15T07:04:08.273Z,100815.92
2018-12-15T07:06:38.113Z,100813.81
2018-12-15T07:09:07.812Z,100818.48
2018-12-15T07:11:39.060Z,100815.78
2018-12-15T07:14:08.753Z,100812.87
2018-12-15T07:16:38.429Z,100816.73
2018-12-15T07:19:08.217Z,100813.73
2018-12-15T07:21:38.049Z,100814.66
2018-12-15T07:24:07.920Z,100815.95
2018-12-15T07:26:37.610Z,100821.55
2018-12-15T07:29:07.408Z,100825.32
2018-12-15T07:31:37.129Z,100820.20
2018-12-15T07:34:06.912Z,100824.89
2018-12-15T07:36:36.721Z,100826.03
2018-12-15T07:39:07.871Z,100826.03
2018-12-15T07:41:38.016Z,100826.97
2018-12-15T07:44:07.800Z,100828.59
2018-12-15T07:46:37.492Z,100830.33
2018-12-15T07:49:07.173Z,100843.11
2018-12-15T07:51:36.951Z,100831.59
2018-12-15T07:54:06.686Z,100830.03
2018-12-15T07:56:36.399Z,100827.63
2018-12-15T07:59:06.222Z,100836.09
2018-12-15T08:01:35.884Z,100838.77
2018-12-15T08:04:05.668Z,100827.31
2018-12-15T08:06:35.436Z,100835.00
2018-12-15T08:09:06.746Z,100837.88
2018-12-15T08:11:42.784Z,100836.48
2018-12-15T08:14:13.221Z,100832.71
2018-12-15T08:16:43.101Z,100842.41
2018-12-15T08:19:12.790Z,100836.86
2018-12-15T08:21:42.569Z,100846.94
2018-12-15T08:24:12.348Z,100846.86
2018-12-15T08:26:42.337Z,100846.81
2018-12-15T08:29:12.005Z,100842.45
2018-12-15T08:31:41.792Z,100841.93
2018-12-15T08:34:11.556Z,100837.60
2018-12-15T08:36:41.312Z,100837.23
2018-12-15T08:39:11.074Z,100829.57
2018-12-15T08:41:41.001Z,100832.13
2018-12-15T08:44:10.667Z,100838.39
2018-12-15T08:46:40.423Z,100840.02
2018-12-15T08:49:10.169Z,100837.94
2018-12-15T08:51:39.852Z,100834.45
2018-12-15T08:54:09.544Z,100836.84
2018-12-15T08:56:39.200Z,100838.13
2018-12-15T08:59:08.929Z,100841.92
2018-12-15T09:01:40.939Z,100836.43
2018-12-15T09:04:10.641Z,100840.39
2018-12-15T09:06:40.328Z,100841.00
2018-12-15T09:09:10.038Z,100846.13
2018-12-15T09:11:39.697Z,100849.44
2018-12-15T09:14:09.421Z,100850.49
2018-12-15T09:16:39.292Z,100849.05
2018-12-15T09:19:11.420Z,100846.56
2018-12-15T09:21:40.777Z,100852.16
2018-12-15T09:24:10.498Z,100844.95
2018-12-15T09:26:40.201Z,100849.23
2018-12-15T09:29:09.943Z,100850.59
2018-12-15T09:31:41.648Z,100855.37
2018-12-15T09:34:11.532Z,100846.20
2018-12-15T09:36:41.205Z,100845.12
2018-12-15T09:39:11.089Z,100842.73
2018-12-15T09:41:40.757Z,100850.36
2018-12-15T09:44:10.478Z,100843.94
2018-12-15T09:46:40.212Z,100852.46
2018-12-15T09:49:10.066Z,100850.36
2018-12-15T09:51:39.765Z,100848.45
2018-12-15T09:54:09.495Z,100842.91
2018-12-15T09:56:39.276Z,100846.38
2018-12-15T09:59:09.164Z,100838.11
2018-12-15T10:01:38.950Z,100834.26
2018-12-15T10:04:08.697Z,100838.08
2018-12-15T10:06:38.537Z,100833.55
2018-12-15T10:09:08.245Z,100831.19
2018-12-15T10:11:39.148Z,100827.08
2018-12-15T10:14:10.630Z,100831.45
2018-12-15T10:16:40.508Z,100836.74
2018-12-15T10:19:10.287Z,100828.62
2018-12-15T10:21:40.049Z,100828.80
2018-12-15T10:24:09.832Z,100828.25
2018-12-15T10:26:39.488Z,100828.42
2018-12-15T10:29:13.378Z,100823.42
2018-12-15T10:31:48.448Z,100824.56
2018-12-15T10:34:18.129Z,100821.42
2018-12-15T10:36:48.037Z,100826.80
2018-12-15T10:39:17.716Z,100822.88
2018-12-15T10:41:47.585Z,100817.08
2018-12-15T10:44:17.509Z,100821.67
2018-12-15T10:46:47.453Z,100819.72
2018-12-15T10:49:19.105Z,100814.05
2018-12-15T10:51:48.812Z,100813.56
2018-12-15T10:54:18.600Z,100812.17
2018-12-15T10:56:48.617Z,100808.84
2018-12-15T10:59:18.337Z,100806.81
2018-12-15T11:01:48.345Z,100807.22
2018-12-15T11:04:18.448Z,100795.84
2018-12-15T11:06:48.538Z,100792.40
2018-12-15T11:09:18.233Z,100787.23
2018-12-15T11:11:48.237Z,100789.57
2018-12-15T11:14:18.210Z,100788.28
2018-12-15T11:16:48.219Z,100788.22
2018-12-15T11:19:18.692Z,100786.06
2018-12-15T11:21:48.378Z,100784.78
2018-12-15T11:24:18.161Z,100777.39
2018-12-15T11:26:48.057Z,100778.83
2018-12-15T11:29:18.781Z,100774.66
2018-12-15T11:31:48.581Z,100766.25
2018-12-15T11:34:18.312Z,100762.73
2018-12-15T11:36:48.873Z,100763.28
2018-12-15T11:39:18.728Z,100762.64
2018-12-15T11:41:48.441Z,100759.06
2018-12-15T11:44:18.189Z,100754.86
2018-12-15T11:46:48.204Z,100743.95
2018-12-15T11:49:18.629Z,100742.02
2018-12-15T11:51:48.325Z,100742.90
2018-12-15T11:54:18.933Z,100746.57
2018-12-15T11:56:49.768Z,100746.66
2018-12-15T11:59:19.493Z,100739.22
2018-12-15T12:01:50.404Z,100738.96
2018-12-15T12:04:20.226Z,100742.66
2018-12-15T12:06:49.957Z,100739.72
2018-12-15T12:09:19.672Z,100742.48
2018-12-15T12:11:49.784Z,100732.66
2018-12-15T12:14:20.708Z,100732.48
2018-12-15T12:16:50.530Z,100729.08
2018-12-15T12:19:20.369Z,100726.48
2018-12-15T12:21:50.028Z,100721.27
2018-12-15T12:24:19.756Z,100720.83
2018-12-15T12:26:51.708Z,100716.39
2018-12-15T12:29:21.416Z,100719.19
2018-12-15T12:31:51.441Z,100720.53
2018-12-15T12:34:21.265Z,100715.02
2018-12-15T12:36:50.993Z,100714.30
2018-12-15T12:39:20.725Z,100706.59
2018-12-15T12:41:52.338Z,100711.34
2018-12-15T12:44:22.065Z,100707.99
2018-12-15T12:46:51.861Z,100707.15
2018-12-15T12:49:22.309Z,100697.98
2018-12-15T12:51:52.914Z,100702.56
2018-12-15T12:54:23.104Z,100696.33
2018-12-15T12:56:53.164Z,100698.58
2018-12-15T12:59:22.920Z,100682.33
2018-12-15T13:01:52.596Z,100683.17
2018-12-15T13:04:22.317Z,100683.93
2018-12-15T13:06:52.151Z,100689.50
2018-12-15T13:09:22.000Z,100681.98
2018-12-15T13:11:51.842Z,100678.25
2018-12-15T13:14:21.869Z,100686.06
2018-12-15T13:16:51.680Z,100677.23
2018-12-15T13:19:21.393Z,100684.26
2018-12-15T13:21:51.072Z,100679.41
2018-12-15T13:24:20.841Z,100687.73
2018-12-15T13:26:50.780Z,100680.87
2018-12-15T13:29:20.561Z,100692.34
2018-12-15T13:31:50.253Z,100693.70
2018-12-15T13:34:19.976Z,100688.26
2018-12-15T13:36:50.209Z,100683.64
2018-12-15T13:39:20.100Z,100685.63
2018-12-15T13:41:49.860Z,100688.26
2018-12-15T13:44:20.109Z,100685.52
2018-12-15T13:46:50.260Z,100687.76
2018-12-15T13:49:20.393Z,100679.59
2018-12-15T13:51:50.381Z,100686.06
2018-12-15T13:54:20.218Z,100685.38
2018-12-15T13:56:50.205Z,100691.37
2018-12-15T13:59:19.897Z,100691.00
2018-12-15T14:01:49.739Z,100692.98
2018-12-15T14:04:19.420Z,100692.48
2018-12-15T14:06:49.259Z,100688.58
2018-12-15T14:09:19.073Z,100686.12
2018-12-15T14:11:48.906Z,100694.34
2018-12-15T14:14:18.645Z,100690.41
2018-12-15T14:16:48.448Z,100694.76
2018-12-15T14:19:18.447Z,100697.41
2018-12-15T14:21:48.366Z,100701.43
2018-12-15T14:24:18.063Z,100706.85
2018-12-15T14:26:48.092Z,100707.19
2018-12-15T14:29:17.965Z,100696.94
2018-12-15T14:31:47.762Z,100708.73
2018-12-15T14:34:17.825Z,100706.17
2018-12-15T14:36:47.544Z,100706.41
2018-12-15T14:39:17.401Z,100703.43
2018-12-15T14:41:47.388Z,100696.86
2018-12-15T14:44:17.073Z,100705.48
2018-12-15T14:46:46.816Z,100701.72
2018-12-15T14:49:16.612Z,100706.16
2018-12-15T14:51:46.323Z,100706.69
2018-12-15T14:54:16.120Z,100690.53
2018-12-15T14:56:45.811Z,100688.73
2018-12-15T14:59:15.544Z,100684.89
2018-12-15T15:01:45.320Z,100678.50
2018-12-15T15:04:14.989Z,100674.57
2018-12-15T15:06:44.674Z,100663.77
2018-12-15T15:09:14.486Z,100659.51
2018-12-15T15:11:44.326Z,100652.86
2018-12-15T15:14:14.141Z,100661.98
2018-12-15T15:16:47.041Z,100651.58
2018-12-15T15:19:16.809Z,100650.70
2018-12-15T15:21:46.737Z,100651.25
2018-12-15T15:24:16.537Z,100651.09
2018-12-15T15:26:46.220Z,100651.48
2018-12-15T15:29:16.013Z,100656.47
2018-12-15T15:31:45.798Z,100641.49
2018-12-15T15:34:15.477Z,100629.55
2018-12-15T15:36:45.148Z,100626.55
2018-12-15T15:39:15.228Z,100620.72
2018-12-15T15:41:45.253Z,100623.13
2018-12-15T15:44:14.988Z,100628.67
2018-12-15T15:46:44.800Z,100631.56
2018-12-15T15:49:15.561Z,100630.19
2018-12-15T15:51:45.411Z,100619.70
2018-12-15T15:54:15.426Z,100623.52
2018-12-15T15:56:45.260Z,100612.27
2018-12-15T15:59:14.925Z,100603.84
2018-12-15T16:01:44.616Z,100610.58
2018-12-15T16:04:14.414Z,100626.53
2018-12-15T16:06:44.145Z,100616.72
2018-12-15T16:09:14.042Z,100608.19
2018-12-15T16:11:43.891Z,100610.75
2018-12-15T16:14:13.623Z,100598.19
2018-12-15T16:16:43.361Z,100600.58
2018-12-15T16:19:13.208Z,100589.51
2018-12-15T16:21:42.985Z,100586.13
2018-12-15T16:24:12.793Z,100581.81
2018-12-15T16:26:42.580Z,100568.06
2018-12-15T16:29:12.306Z,100570.16
2018-12-15T16:31:42.042Z,100567.87
2018-12-15T16:34:11.870Z,100572.55
2018-12-15T16:36:41.605Z,100574.73
2018-12-15T16:39:11.354Z,100560.90
2018-12-15T16:41:42.334Z,100569.02
2018-12-15T16:44:12.314Z,100568.88
2018-12-15T16:46:42.337Z,100566.98
2018-12-15T16:49:12.039Z,100571.20
2018-12-15T16:51:41.776Z,100560.05
2018-12-15T16:54:11.453Z,100553.55
2018-12-15T16:56:41.385Z,100551.92
2018-12-15T16:59:11.065Z,100564.40
2018-12-15T17:01:40.966Z,100558.16
2018-12-15T17:04:10.709Z,100563.58
2018-12-15T17:06:40.557Z,100557.50
2018-12-15T17:09:10.330Z,100555.44
2018-12-15T17:11:40.024Z,100544.78
2018-12-15T17:14:09.753Z,100545.02
2018-12-15T17:16:39.484Z,100541.20
2018-12-15T17:19:09.333Z,100548.51
2018-12-15T17:21:39.077Z,100543.67
2018-12-15T17:24:08.813Z,100548.44
2018-12-15T17:26:38.548Z,100546.64
2018-12-15T17:29:08.454Z,100540.30
2018-12-15T17:31:38.172Z,100542.01
2018-12-15T17:34:08.164Z,100536.40
2018-12-15T17:36:38.004Z,100537.50
2018-12-15T17:39:08.094Z,100541.83
2018-12-15T17:41:39.821Z,100536.48
2018-12-15T17:44:10.026Z,100545.45
2018-12-15T17:46:40.333Z,100546.88
2018-12-15T17:49:10.110Z,100540.67
2018-12-15T17:51:40.675Z,100537.03
2018-12-15T17:54:10.462Z,100533.30
2018-12-15T17:56:40.289Z,100528.44
2018-12-15T17:59:10.080Z,100524.15
2018-12-15T18:01:39.942Z,100518.31
2018-12-15T18:04:09.625Z,100519.17
2018-12-15T18:06:39.591Z,100520.45
2018-12-15T18:09:09.329Z,100510.98
2018-12-15T18:11:41.105Z,100510.06
2018-12-15T18:14:10.938Z,100499.56
2018-12-15T18:16:41.569Z,100500.32
2018-12-15T18:19:11.537Z,100497.63
2018-12-15T18:21:41.420Z,100489.03
2018-12-15T18:24:11.253Z,100491.42
2018-12-15T18:26:41.646Z,100483.00
2018-12-15T18:29:11.522Z,100479.27
2018-12-15T18:31:41.399Z,100471.37
2018-12-15T18:34:11.152Z,100475.34
2018-12-15T18:36:41.017Z,100463.66
2018-12-15T18:39:10.833Z,100457.73
2018-12-15T18:41:41.639Z,100454.44
2018-12-15T18:44:12.548Z,100448.61
2018-12-15T18:46:42.268Z,100451.64
2018-12-15T18:49:11.949Z,100442.30
2018-12-15T18:51:41.745Z,100433.55
2018-12-15T18:54:11.553Z,100427.05
2018-12-15T18:56:41.501Z,100425.70
2018-12-15T18:59:11.408Z,100422.30
2018-12-15T19:01:41.260Z,100415.55
2018-12-15T19:04:10.940Z,100413.37
2018-12-15T19:06:41.705Z,100411.00
2018-12-15T19:09:11.528Z,100414.97
2018-12-15T19:11:43.153Z,100402.70
2018-12-15T19:14:13.029Z,100401.41
2018-12-15T19:16:42.917Z,100401.53
2018-12-15T19:19:12.626Z,100403.56
2018-12-15T19:21:42.542Z,100398.09
2018-12-15T19:24:12.421Z,100397.64
2018-12-15T19:26:42.364Z,100388.16
2018-12-15T19:29:12.065Z,100384.72
2018-12-15T19:31:41.881Z,100376.31
2018-12-15T19:34:17.348Z,100370.34
2018-12-15T19:36:43.361Z,100364.95
2018-12-15T19:39:13.261Z,100364.73
2018-12-15T19:41:43.100Z,100354.05
2018-12-15T19:44:13.008Z,100356.00
2018-12-15T19:46:42.841Z,100351.93
2018-12-15T19:49:12.620Z,100349.44
2018-12-15T19:51:42.321Z,100341.49
2018-12-15T19:54:11.999Z,100345.27
2018-12-15T19:56:42.033Z,100348.96
2018-12-15T19:59:14.417Z,100347.92
2018-12-15T20:01:44.377Z,100350.92
2018-12-15T20:04:14.108Z,100342.05
2018-12-15T20:06:43.880Z,100337.48
2018-12-15T20:09:13.707Z,100339.56
2018-12-15T20:11:43.433Z,100343.06
2018-12-15T20:14:13.300Z,100341.36
2018-12-15T20:16:43.096Z,100339.45
2018-12-15T20:19:12.977Z,100324.62
2018-12-15T20:21:42.790Z,100327.87
2018-12-15T20:24:12.664Z,100320.20
2018-12-15T20:26:43.304Z,100310.30
2018-12-15T20:29:13.206Z,100314.28
2018-12-15T20:31:42.897Z,100300.59
2018-12-15T20:34:12.835Z,100300.59
2018-12-15T20:36:42.557Z,100296.12
2018-12-15T20:39:12.253Z,100296.48
2018-12-15T20:41:42.192Z,100293.38
2018-12-15T20:44:12.057Z,100291.09
2018-12-15T20:46:41.799Z,100288.41
2018-12-15T20:49:11.540Z,100285.52
2018-12-15T20:51:42.984Z,100277.43
2018-12-15T20:54:18.312Z,100275.36
2018-12-15T20:56:48.030Z,100277.34
2018-12-15T20:59:17.860Z,100281.19
2018-12-15T21:01:47.548Z,100280.89
2018-12-15T21:04:17.241Z,100280.89
2018-12-15T21:06:46.929Z,100271.62
2018-12-15T21:09:16.685Z,100272.55
2018-12-15T21:11:46.595Z,100264.09
2018-12-15T21:14:16.316Z,100256.72
2018-12-15T21:16:46.036Z,100251.55
2018-12-15T21:19:15.841Z,100243.42
2018-12-15T21:21:49.523Z,100241.41
2018-12-15T21:24:18.344Z,100238.77
2018-12-15T21:26:48.116Z,100236.09
2018-12-15T21:29:17.877Z,100230.36
2018-12-15T21:31:47.828Z,100221.27
2018-12-15T21:34:17.604Z,100217.03
2018-12-15T21:36:47.385Z,100199.46
2018-12-15T21:39:17.174Z,100186.44
2018-12-15T21:41:47.049Z,100179.41
2018-12-15T21:44:16.841Z,100176.83
2018-12-15T21:46:46.533Z,100172.67
2018-12-15T21:49:16.229Z,100174.81
2018-12-15T21:51:45.992Z,100187.67
2018-12-15T21:54:15.925Z,100179.80
2018-12-15T21:56:45.613Z,100176.91
2018-12-15T21:59:15.309Z,100167.08
2018-12-15T22:01:44.997Z,100162.21
2018-12-15T22:04:14.835Z,100165.02
2018-12-15T22:06:44.769Z,100171.06
2018-12-15T22:09:14.473Z,100166.88
2018-12-15T22:11:44.300Z,100166.78
2018-12-15T22:14:13.995Z,100169.70
2018-12-15T22:16:43.842Z,100156.48
2018-12-15T22:19:13.612Z,100147.33
2018-12-15T22:21:43.400Z,100139.06
2018-12-15T22:24:13.228Z,100141.00
2018-12-15T22:26:43.948Z,100145.69
2018-12-15T22:29:13.681Z,100142.84
2018-12-15T22:31:43.484Z,100133.76
2018-12-15T22:34:13.321Z,100114.95
2018-12-15T22:36:43.116Z,100105.69
2018-12-15T22:39:13.809Z,100082.84
2018-12-15T22:41:43.552Z,100078.50
2018-12-15T22:44:14.446Z,100055.09
2018-12-15T22:46:44.412Z,100034.53
2018-12-15T22:49:14.233Z,100030.20
2018-12-15T22:51:43.930Z,100023.25
2018-12-15T22:54:13.608Z,100003.73
2018-12-15T22:56:43.573Z,100000.67
2018-12-15T22:59:13.276Z,99994.72
2018-12-15T23:01:45.860Z,99993.41
2018-12-15T23:04:15.909Z,99987.80
2018-12-15T23:06:45.744Z,99989.48
2018-12-15T23:09:15.509Z,99991.63
2018-12-15T23:11:45.208Z,99988.14
2018-12-15T23:14:14.897Z,99998.43
2018-12-15T23:16:44.628Z,99988.98
2018-12-15T23:19:14.357Z,99979.05
2018-12-15T23:21:44.024Z,99971.69
2018-12-15T23:24:13.872Z,99970.87
2018-12-15T23:26:43.741Z,99971.19
2018-12-15T23:29:13.417Z,99977.88
2018-12-15T23:31:43.200Z,99981.38
2018-12-15T23:34:13.213Z,99980.03
2018-12-15T23:36:43.008Z,99976.20
2018-12-15T23:39:12.751Z,99964.30
2018-12-15T23:41:42.517Z,99963.42
2018-12-15T23:44:12.276Z,99949.77
2018-12-15T23:46:42.169Z,99947.14
2018-12-15T23:49:12.006Z,99938.45
2018-12-15T23:51:41.797Z,99931.06
2018-12-15T23:54:11.525Z,99917.00
2018-12-15T23:56:41.302Z,99916.97
2018-12-15T23:59:10.988Z,99915.92
